createdAt,value
2018-03-08T00:07:23.745Z,21.8
2018-03-08T00:17:22.660Z,21.8
2018-03-08T00:27:21.878Z,21.8
2018-03-08T00:37:21.551Z,21.8
2018-03-08T00:47:20.275Z,21.8
2018-03-08T00:57:19.564Z,21.8
2018-03-08T01:07:19.010Z,21.8
2018-03-08T01:17:18.134Z,21.8
2018-03-08T01:27:17.209Z,21.8
2018-03-08T01:37:16.775Z,21.8
2018-03-08T01:47:15.623Z,21.8
2018-03-08T01:57:14.795Z,21.8
2018-03-08T02:07:14.034Z,21.8
2018-03-08T02:17:13.106Z,21.8
2018-03-08T02:27:12.425Z,21.8
2018-03-08T02:37:11.434Z,21.8
2018-03-08T02:47:11.053Z,21.8
2018-03-08T02:57:09.857Z,21.8
2018-03-08T03:07:09.355Z,21.8
2018-03-08T03:17:08.390Z,21.8
2018-03-08T03:27:07.459Z,21.8
2018-03-08T03:37:06.761Z,21.8
2018-03-08T03:47:06.308Z,21.8
2018-03-08T03:57:05.430Z,21.8
2018-03-08T04:07:04.492Z,21.8
2018-03-08T04:17:03.544Z,21.8
2018-03-08T04:27:02.948Z,21.8
2018-03-08T04:37:02.037Z,21.8
2018-03-08T04:47:01.449Z,21.8
2018-03-08T04:57:00.672Z,21.9
2018-03-08T05:06:59.991Z,21.9
2018-03-08T05:16:58.902Z,21.9
2018-03-08T05:26:58.245Z,21.9
2018-03-08T05:36:57.393Z,21.9
2018-03-08T05:46:56.338Z,21.8
2018-03-08T05:56:55.676Z,21.9
2018-03-08T06:06:54.734Z,22.1
2018-03-08T06:16:54.099Z,22.1
2018-03-08T06:26:53.304Z,22
2018-03-08T06:36:52.611Z,22.1
2018-03-08T06:46:51.542Z,22.1
2018-03-08T06:56:51.457Z,22.1
2018-03-08T07:06:50.093Z,22
2018-03-08T07:16:49.573Z,22.2
2018-03-08T07:26:48.674Z,22.1
2018-03-08T07:36:47.624Z,22.1
2018-03-08T07:46:46.826Z,22
2018-03-08T07:56:46.261Z,22
2018-03-08T08:06:45.523Z,22.1
2018-03-08T08:16:44.435Z,22.1
2018-03-08T08:26:43.778Z,22.1
2018-03-08T08:36:43.103Z,22
2018-03-08T08:46:42.116Z,22
2018-03-08T08:56:41.256Z,22
2018-03-08T09:06:40.653Z,21.9
2018-03-08T09:16:39.783Z,21.9
2018-03-08T09:26:39.189Z,21.9
2018-03-08T09:36:38.005Z,21.9
2018-03-08T09:46:37.579Z,21.9
2018-03-08T09:56:36.485Z,21.9
2018-03-08T10:06:35.793Z,21.9
2018-03-08T10:16:34.874Z,21.9
2018-03-08T10:26:34.280Z,21.9
2018-03-08T10:36:33.369Z,21.9
2018-03-08T10:46:32.938Z,21.9
2018-03-08T10:56:31.880Z,21.9
2018-03-08T11:06:31.167Z,21.9
2018-03-08T11:16:30.297Z,21.9
2018-03-08T11:26:29.550Z,21.8
2018-03-08T11:36:28.593Z,21.8
2018-03-08T11:46:29.470Z,21.8
2018-03-08T11:56:26.978Z,21.8
2018-03-08T12:06:26.226Z,21.8
2018-03-08T12:16:26.203Z,21.8
2018-03-08T12:26:24.467Z,21.8
2018-03-08T12:36:23.983Z,21.7
2018-03-08T12:46:23.254Z,21.7
2018-03-08T12:56:22.123Z,21.7
2018-03-08T13:06:21.307Z,21.7
2018-03-08T13:16:20.651Z,21.9
2018-03-08T13:26:19.937Z,21.9
2018-03-08T13:36:19.254Z,21.9
2018-03-08T13:46:18.191Z,21.9
2018-03-08T13:56:17.691Z,22.1
2018-03-08T14:06:16.774Z,22
2018-03-08T14:16:15.816Z,22
2018-03-08T14:26:14.992Z,22.2
2018-03-08T14:36:14.196Z,22.1
2018-03-08T14:46:13.406Z,22
2018-03-08T14:56:12.822Z,22.2
2018-03-08T15:06:12.077Z,22.1
2018-03-08T15:16:11.573Z,22.1
2018-03-08T15:26:10.083Z,22
2018-03-08T15:36:09.442Z,22
2018-03-08T15:46:08.580Z,22
2018-03-08T15:56:07.802Z,21.9
2018-03-08T16:06:06.968Z,21.9
2018-03-08T16:16:06.103Z,21.8
2018-03-08T16:26:05.321Z,21.9
2018-03-08T16:36:05.218Z,21.9
2018-03-08T16:46:03.775Z,21.9
2018-03-08T16:56:03.302Z,21.9
2018-03-08T17:06:02.448Z,21.9
2018-03-08T17:16:02.120Z,21.9
2018-03-08T17:26:00.872Z,21.9
2018-03-08T17:36:00.090Z,21.9
2018-03-08T17:45:59.120Z,21.9
2018-03-08T17:55:59.088Z,21.9
2018-03-08T18:05:57.715Z,22.1
2018-03-08T18:15:56.608Z,22.3
2018-03-08T18:25:56.046Z,22.4
2018-03-08T18:35:55.338Z,22.4
2018-03-08T18:45:54.195Z,22.3
2018-03-08T18:55:53.400Z,22.4
2018-03-08T19:05:53.130Z,22.4
2018-03-08T19:15:51.784Z,22.3
2018-03-08T19:25:51.357Z,22.4
2018-03-08T19:35:50.469Z,22.4
2018-03-08T19:45:49.974Z,22.4
2018-03-08T19:55:48.711Z,22.4
2018-03-08T20:05:48.141Z,22.4
2018-03-08T20:15:47.145Z,22.4
2018-03-08T20:25:46.391Z,22.3
2018-03-08T20:35:45.773Z,22.3
2018-03-08T20:45:44.696Z,22.2
2018-03-08T20:55:43.935Z,22.3
2018-03-08T21:05:43.640Z,22.3
2018-03-08T21:15:42.367Z,22.3
2018-03-08T21:25:41.666Z,22.3
2018-03-08T21:35:41.216Z,22.2
2018-03-08T21:45:40.521Z,22.2
2018-03-08T21:55:39.440Z,22.1
2018-03-08T22:05:38.423Z,22.1
2018-03-08T22:15:37.649Z,22.1
2018-03-08T22:25:36.739Z,22.1
2018-03-08T22:35:36.018Z,22.1
2018-03-08T22:45:35.211Z,22
2018-03-08T22:55:34.495Z,21.9
2018-03-08T23:05:33.878Z,21.9
2018-03-08T23:15:33.125Z,21.9
2018-03-08T23:25:32.010Z,21.9
2018-03-08T23:35:31.191Z,21.9
2018-03-08T23:45:30.403Z,21.9
2018-03-08T23:55:29.627Z,21.9
